createdAt,value
2023-03-06T00:01:20.336Z,96181.75
2023-03-06T00:03:52.779Z,96171.72
2023-03-06T00:06:24.403Z,96169.53
2023-03-06T00:08:56.037Z,96165.31
2023-03-06T00:11:27.790Z,96159.22
2023-03-06T00:13:59.359Z,96165.81
2023-03-06T00:16:30.973Z,96166.94
2023-03-06T00:19:02.640Z,96168.53
2023-03-06T00:21:34.264Z,96168.03
2023-03-06T00:24:06.054Z,96169.56
2023-03-06T00:26:37.668Z,96168.03
2023-03-06T00:29:09.376Z,96168.28
2023-03-06T00:31:41.960Z,96168.28
2023-03-06T00:34:14.418Z,96163.28
2023-03-06T00:36:46.106Z,96161.94
2023-03-06T00:39:17.794Z,96158.78
2023-03-06T00:41:49.407Z,96163.28
2023-03-06T00:44:21.164Z,96151.63
2023-03-06T00:46:52.819Z,96154.03
2023-03-06T00:49:24.457Z,96151.09
2023-03-06T00:51:56.058Z,96151.66
2023-03-06T00:54:27.661Z,96160.91
2023-03-06T00:56:59.363Z,96161.16
2023-03-06T00:59:30.998Z,96153.50
2023-03-06T01:02:02.980Z,96149.53
2023-03-06T01:04:34.860Z,96143.75
2023-03-06T01:07:06.481Z,96147.97
2023-03-06T01:09:38.387Z,96132.13
2023-03-06T01:12:10.197Z,96135.28
2023-03-06T01:14:41.909Z,96144.25
2023-03-06T01:17:14.519Z,96133.19
2023-03-06T01:19:48.031Z,96135.03
2023-03-06T01:22:21.347Z,96130.81
2023-03-06T01:24:53.607Z,96130.25
2023-03-06T01:27:26.285Z,96129.47
2023-03-06T01:29:58.012Z,96130.56
2023-03-06T01:32:29.887Z,96129.75
2023-03-06T01:35:01.637Z,96126.84
2023-03-06T01:37:35.555Z,96121.03
2023-03-06T01:40:10.708Z,96115.38
2023-03-06T01:42:43.177Z,96111.00
2023-03-06T01:45:14.793Z,96104.16
2023-03-06T01:47:46.748Z,96103.03
2023-03-06T01:50:18.567Z,96106.78
2023-03-06T01:52:59.523Z,96109.41
2023-03-06T01:55:34.942Z,96102.84
2023-03-06T01:58:12.646Z,96106.25
2023-03-06T02:00:44.554Z,96100.97
2023-03-06T02:03:23.370Z,96101.50
2023-03-06T02:05:56.130Z,96099.41
2023-03-06T02:08:30.009Z,96095.44
2023-03-06T02:11:01.736Z,96086.19
2023-03-06T02:13:35.193Z,96083.56
2023-03-06T02:16:08.551Z,96091.22
2023-03-06T02:18:42.732Z,96087.78
2023-03-06T02:21:26.795Z,96088.84
2023-03-06T02:24:24.686Z,96090.44
2023-03-06T02:26:59.042Z,96088.06
2023-03-06T02:29:31.777Z,96084.63
2023-03-06T02:32:07.262Z,96077.75
2023-03-06T02:34:39.276Z,96079.59
2023-03-06T02:37:11.434Z,96077.00
2023-03-06T02:39:50.104Z,96073.28
2023-03-06T02:42:26.387Z,96074.59
2023-03-06T02:45:03.282Z,96069.59
2023-03-06T02:47:34.958Z,96066.16
2023-03-06T02:50:06.939Z,96055.31
2023-03-06T02:52:38.500Z,96048.22
2023-03-06T02:55:10.639Z,96046.34
2023-03-06T02:57:42.489Z,96048.47
2023-03-06T03:00:15.372Z,96054.53
2023-03-06T03:02:48.278Z,96049.81
2023-03-06T03:05:20.736Z,96051.38
2023-03-06T03:07:58.873Z,96047.91
2023-03-06T03:10:32.453Z,96045.56
2023-03-06T03:13:04.450Z,96047.16
2023-03-06T03:15:38.328Z,96051.63
2023-03-06T03:18:11.448Z,96053.16
2023-03-06T03:20:43.097Z,96047.66
2023-03-06T03:23:14.786Z,96045.53
2023-03-06T03:25:46.445Z,96042.94
2023-03-06T03:28:19.389Z,96048.47
2023-03-06T03:30:51.586Z,96052.44
2023-03-06T03:33:23.234Z,96056.13
2023-03-06T03:35:59.903Z,96048.47
2023-03-06T03:38:32.253Z,96047.69
2023-03-06T03:41:04.849Z,96045.06
2023-03-06T03:43:36.733Z,96046.88
2023-03-06T03:46:08.625Z,96049.25
2023-03-06T03:48:40.497Z,96046.09
2023-03-06T03:51:13.954Z,96043.72
2023-03-06T03:53:50.392Z,96047.41
2023-03-06T03:56:26.054Z,96044.25
2023-03-06T03:59:04.179Z,96043.47
2023-03-06T04:01:42.521Z,96034.22
2023-03-06T04:04:14.231Z,96033.97
2023-03-06T04:06:48.187Z,96028.16
2023-03-06T04:09:22.759Z,96035.28
2023-03-06T04:11:55.097Z,96027.63
2023-03-06T04:14:27.165Z,96030.81
2023-03-06T04:16:59.267Z,96030.28
2023-03-06T04:19:31.035Z,96032.91
2023-03-06T04:22:03.273Z,96038.72
2023-03-06T04:24:37.037Z,96036.09
2023-03-06T04:27:08.753Z,96034.78
2023-03-06T04:29:40.359Z,96032.16
2023-03-06T04:32:12.117Z,96022.38
2023-03-06T04:34:44.590Z,96020.53
2023-03-06T04:37:22.261Z,96019.16
2023-03-06T04:39:54.734Z,96024.19
2023-03-06T04:42:28.517Z,96020.53
2023-03-06T04:45:00.985Z,96026.31
2023-03-06T04:47:32.661Z,96023.16
2023-03-06T04:50:05.396Z,96023.94
2023-03-06T04:52:37.208Z,96028.44
2023-03-06T04:55:12.230Z,96029.47
2023-03-06T04:57:45.935Z,96023.41
2023-03-06T05:00:22.248Z,96028.06
2023-03-06T05:02:54.142Z,96022.13
2023-03-06T05:05:26.604Z,96023.16
2023-03-06T05:07:58.445Z,96021.84
2023-03-06T05:10:30.168Z,96020.53
2023-03-06T05:13:01.957Z,96017.63
2023-03-06T05:15:33.637Z,96027.63
2023-03-06T05:18:05.431Z,96022.91
2023-03-06T05:20:37.112Z,96029.50
2023-03-06T05:23:09.160Z,96023.13
2023-03-06T05:25:42.213Z,96030.03
2023-03-06T05:28:13.882Z,96026.06
2023-03-06T05:30:46.146Z,96031.84
2023-03-06T05:33:18.359Z,96034.22
2023-03-06T05:35:51.107Z,96033.44
2023-03-06T05:38:22.826Z,96036.16
2023-03-06T05:40:54.768Z,96034.47
2023-03-06T05:43:26.488Z,96030.75
2023-03-06T05:46:03.777Z,96030.81
2023-03-06T05:48:35.838Z,96021.31
2023-03-06T05:51:07.836Z,96025.00
2023-03-06T05:53:40.181Z,96025.53
2023-03-06T05:56:11.941Z,96024.75
2023-03-06T05:58:43.770Z,96020.78
2023-03-06T06:01:18.888Z,96022.09
2023-03-06T06:03:51.091Z,96023.16
2023-03-06T06:06:22.973Z,96030.28
2023-03-06T06:08:54.688Z,96026.88
2023-03-06T06:11:28.360Z,96029.25
2023-03-06T06:14:00.392Z,96025.81
2023-03-06T06:16:32.292Z,96027.63
2023-03-06T06:19:04.178Z,96031.06
2023-03-06T06:21:35.957Z,96041.88
2023-03-06T06:24:07.608Z,96034.75
2023-03-06T06:26:39.755Z,96042.44
2023-03-06T06:29:13.384Z,96035.56
2023-03-06T06:31:45.364Z,96040.56
2023-03-06T06:34:16.996Z,96033.19
2023-03-06T06:36:51.622Z,96034.19
2023-03-06T06:39:25.227Z,96040.78
2023-03-06T06:42:14.712Z,96046.31
2023-03-06T06:44:48.594Z,96060.31
2023-03-06T06:47:24.037Z,96054.19
2023-03-06T06:49:57.285Z,96056.81
2023-03-06T06:52:28.904Z,96055.78
2023-03-06T06:55:00.569Z,96056.91
2023-03-06T06:57:32.270Z,96053.91
2023-03-06T07:00:05.749Z,96060.13
2023-03-06T07:02:37.364Z,96050.63
2023-03-06T07:05:09.641Z,96060.06
2023-03-06T07:07:41.588Z,96051.22
2023-03-06T07:10:15.615Z,96050.66
2023-03-06T07:12:47.364Z,96048.47
2023-03-06T07:15:19.056Z,96051.19
2023-03-06T07:17:50.770Z,96044.09
2023-03-06T07:20:22.779Z,96051.94
2023-03-06T07:22:54.505Z,96046.59
2023-03-06T07:25:26.151Z,96045.56
2023-03-06T07:27:58.036Z,96047.38
2023-03-06T07:30:30.572Z,96035.75
2023-03-06T07:33:02.433Z,96043.03
2023-03-06T07:35:34.128Z,96043.00
2023-03-06T07:38:05.859Z,96043.44
2023-03-06T07:40:38.319Z,96045.91
2023-03-06T07:43:19.022Z,96046.00
2023-03-06T07:46:00.032Z,96052.53
2023-03-06T07:48:31.828Z,96059.72
2023-03-06T07:51:12.899Z,96056.59
2023-03-06T07:53:44.848Z,96051.88
2023-03-06T07:56:18.018Z,96057.44
2023-03-06T07:58:50.649Z,96055.81
2023-03-06T08:01:22.548Z,96061.13
2023-03-06T08:03:54.516Z,96058.22
2023-03-06T08:06:27.868Z,96058.44
2023-03-06T08:09:00.457Z,96057.28
2023-03-06T08:11:32.226Z,96052.19
2023-03-06T08:14:03.991Z,96050.50
2023-03-06T08:16:35.950Z,96048.88
2023-03-06T08:19:08.016Z,96052.59
2023-03-06T08:21:42.378Z,96061.00
2023-03-06T08:24:14.109Z,96054.41
2023-03-06T08:26:46.432Z,96063.91
2023-03-06T08:29:18.184Z,96058.53
2023-03-06T08:31:50.169Z,96060.53
2023-03-06T08:34:26.747Z,96062.72
2023-03-06T08:36:58.489Z,96064.84
2023-03-06T08:39:30.250Z,96059.94
2023-03-06T08:42:02.140Z,96058.34
2023-03-06T08:44:35.257Z,96058.88
2023-03-06T08:47:07.292Z,96064.41
2023-03-06T08:49:39.256Z,96057.16
2023-03-06T08:52:11.692Z,96062.69
2023-03-06T08:54:43.537Z,96054.22
2023-03-06T08:57:15.306Z,96050.91
2023-03-06T08:59:46.996Z,96058.75
2023-03-06T09:02:18.750Z,96049.81
2023-03-06T09:04:50.808Z,96062.31
2023-03-06T09:07:22.529Z,96048.53
2023-03-06T09:09:57.972Z,96048.75
2023-03-06T09:12:32.667Z,96043.66
2023-03-06T09:15:09.678Z,96049.16
2023-03-06T09:17:41.722Z,96045.91
2023-03-06T09:20:16.283Z,96050.59
2023-03-06T09:22:48.455Z,96050.00
2023-03-06T09:25:20.285Z,96048.53
2023-03-06T09:28:08.636Z,96064.44
2023-03-06T09:30:42.886Z,96063.78
2023-03-06T09:33:15.345Z,96066.50
2023-03-06T09:35:52.143Z,96072.03
2023-03-06T09:38:26.978Z,96065.44
2023-03-06T09:40:58.593Z,96054.00
2023-03-06T09:43:42.733Z,96058.63
2023-03-06T09:46:44.905Z,96061.50
2023-03-06T09:49:35.306Z,96058.25
2023-03-06T09:52:34.209Z,96058.69
2023-03-06T09:55:25.583Z,96057.88
2023-03-06T09:58:13.931Z,96053.31
2023-03-06T10:01:02.829Z,96046.50
2023-03-06T10:03:45.167Z,96046.09
2023-03-06T10:06:37.165Z,96045.69
2023-03-06T10:09:35.487Z,96042.31
2023-03-06T10:12:16.767Z,96039.59
2023-03-06T10:14:57.886Z,96047.28
2023-03-06T10:17:36.090Z,96043.00
2023-03-06T10:21:00.931Z,96033.16
2023-03-06T10:23:54.444Z,96038.19
2023-03-06T10:26:36.629Z,96035.81
2023-03-06T10:29:40.165Z,96035.00
2023-03-06T10:32:30.546Z,96035.13
2023-03-06T10:35:19.093Z,96038.13
2023-03-06T10:37:51.289Z,96040.38
2023-03-06T10:40:34.612Z,96028.88
2023-03-06T10:43:12.528Z,96035.78
2023-03-06T10:45:49.989Z,96027.00
2023-03-06T10:48:26.064Z,96028.03
2023-03-06T10:51:18.519Z,96020.59
2023-03-06T10:54:03.521Z,96023.22
2023-03-06T10:56:38.785Z,96022.00
2023-03-06T10:59:18.155Z,96021.00
2023-03-06T11:01:54.575Z,96018.81
2023-03-06T11:04:36.370Z,96021.34
2023-03-06T11:07:22.814Z,96019.09
2023-03-06T11:09:57.576Z,96011.47
2023-03-06T11:12:33.633Z,96015.03
2023-03-06T11:15:15.557Z,96013.66
2023-03-06T11:18:00.849Z,96020.06
2023-03-06T11:20:51.615Z,96015.00
2023-03-06T11:23:29.978Z,96002.31
2023-03-06T11:26:16.923Z,96004.19
2023-03-06T11:28:57.337Z,96007.41
2023-03-06T11:31:34.831Z,95997.91
2023-03-06T11:34:18.184Z,95994.56
2023-03-06T11:37:00.369Z,95994.19
2023-03-06T11:39:39.564Z,95986.84
2023-03-06T11:46:02.030Z,95980.38
2023-03-06T11:48:54.321Z,95974.84
2023-03-06T11:51:33.188Z,95974.50
2023-03-06T11:54:04.892Z,95965.06
2023-03-06T11:56:45.399Z,95961.22
2023-03-06T11:59:25.890Z,95958.91
2023-03-06T12:02:00.529Z,95953.00
2023-03-06T12:05:06.654Z,95939.44
2023-03-06T12:07:55.946Z,95940.22
2023-03-06T12:10:52.460Z,95938.53
2023-03-06T12:13:36.593Z,95929.16
2023-03-06T12:16:30.060Z,95920.50
2023-03-06T12:19:23.618Z,95923.59
2023-03-06T12:22:31.292Z,95923.06
2023-03-06T12:25:28.111Z,95919.91
2023-03-06T12:28:19.960Z,95905.34
2023-03-06T12:31:07.712Z,95908.97
2023-03-06T12:33:53.354Z,95907.75
2023-03-06T12:36:51.445Z,95899.41
2023-03-06T12:39:35.260Z,95898.13
2023-03-06T12:42:23.072Z,95896.06
2023-03-06T12:45:01.160Z,95890.13
2023-03-06T12:47:42.288Z,95886.34
2023-03-06T12:50:23.975Z,95883.38
2023-03-06T12:53:02.250Z,95881.97
2023-03-06T12:55:50.553Z,95886.94
2023-03-06T12:58:28.150Z,95878.41
2023-03-06T13:01:04.544Z,95875.78
2023-03-06T13:04:11.375Z,95873.47
2023-03-06T13:06:58.245Z,95870.97
2023-03-06T13:09:35.978Z,95874.34
2023-03-06T13:12:39.956Z,95873.94
2023-03-06T13:15:46.398Z,95871.25
2023-03-06T13:18:23.761Z,95867.03
2023-03-06T13:20:56.661Z,95863.53
2023-03-06T13:23:34.302Z,95865.69
2023-03-06T13:26:08.641Z,95858.53
2023-03-06T13:28:44.194Z,95847.59
2023-03-06T13:31:29.393Z,95850.78
2023-03-06T13:34:24.029Z,95852.81
2023-03-06T13:37:18.092Z,95855.22
2023-03-06T13:39:55.810Z,95851.69
2023-03-06T13:42:37.121Z,95841.56
2023-03-06T13:45:16.883Z,95850.44
2023-03-06T13:48:15.568Z,95844.47
2023-03-06T13:50:46.899Z,95839.03
2023-03-06T13:53:49.283Z,95842.13
2023-03-06T13:56:53.482Z,95839.84
2023-03-06T13:59:54.393Z,95844.53
2023-03-06T14:02:47.385Z,95846.28
2023-03-06T14:05:20.107Z,95831.00
2023-03-06T14:08:30.304Z,95829.50
2023-03-06T14:11:05.879Z,95834.47
2023-03-06T14:13:49.434Z,95834.47
2023-03-06T14:16:32.675Z,95821.66
2023-03-06T14:19:18.666Z,95828.72
2023-03-06T14:21:57.845Z,95826.78
2023-03-06T14:24:41.422Z,95822.47
2023-03-06T14:27:19.243Z,95819.81
2023-03-06T14:29:51.023Z,95814.75
2023-03-06T14:32:24.171Z,95812.38
2023-03-06T14:34:56.604Z,95815.66
2023-03-06T14:37:28.402Z,95819.38
2023-03-06T14:40:00.177Z,95814.16
2023-03-06T14:42:31.908Z,95806.19
2023-03-06T14:45:19.101Z,95807.78
2023-03-06T14:47:52.883Z,95805.75
2023-03-06T14:50:25.906Z,95804.00
2023-03-06T14:53:15.791Z,95808.28
2023-03-06T14:55:57.061Z,95804.22
2023-03-06T14:58:44.725Z,95790.44
2023-03-06T15:01:26.489Z,95795.28
2023-03-06T15:04:00.922Z,95793.75
2023-03-06T15:06:39.845Z,95794.91
2023-03-06T15:09:20.483Z,95784.97
2023-03-06T15:11:55.210Z,95792.50
2023-03-06T15:14:39.981Z,95790.53
2023-03-06T15:17:15.782Z,95791.31
2023-03-06T15:19:49.965Z,95788.81
2023-03-06T15:22:26.736Z,95784.81
2023-03-06T15:25:24.804Z,95785.84
2023-03-06T15:28:00.139Z,95778.28
2023-03-06T15:30:36.922Z,95786.16
2023-03-06T15:33:26.589Z,95792.19
2023-03-06T15:36:02.386Z,95789.66
2023-03-06T15:38:41.701Z,95791.78
2023-03-06T15:41:27.750Z,95789.22
2023-03-06T15:44:02.630Z,95785.13
2023-03-06T15:46:35.072Z,95786.09
2023-03-06T15:49:16.524Z,95792.63
2023-03-06T15:51:48.144Z,95792.13
2023-03-06T15:54:19.984Z,95794.66
2023-03-06T15:56:51.643Z,95786.41
2023-03-06T15:59:28.392Z,95794.00
2023-03-06T16:02:13.787Z,95796.91
2023-03-06T16:04:46.319Z,95791.25
2023-03-06T16:07:23.716Z,95793.34
2023-03-06T16:09:55.566Z,95795.88
2023-03-06T16:12:30.274Z,95796.03
2023-03-06T16:15:02.121Z,95806.16
2023-03-06T16:17:36.926Z,95801.91
2023-03-06T16:20:14.973Z,95800.16
2023-03-06T16:22:49.227Z,95802.31
2023-03-06T16:25:24.372Z,95804.97
2023-03-06T16:27:59.143Z,95804.16
2023-03-06T16:30:33.390Z,95813.00
2023-03-06T16:33:05.525Z,95806.84
2023-03-06T16:35:37.204Z,95818.50
2023-03-06T16:38:10.591Z,95816.63
2023-03-06T16:40:43.288Z,95824.50
2023-03-06T16:43:16.285Z,95829.66
2023-03-06T16:45:47.946Z,95822.56
2023-03-06T16:48:19.574Z,95829.34
2023-03-06T16:50:51.175Z,95828.59
2023-03-06T16:53:22.872Z,95829.38
2023-03-06T16:55:54.532Z,95827.91
2023-03-06T16:58:26.142Z,95826.81
2023-03-06T17:00:57.795Z,95843.09
2023-03-06T17:03:29.430Z,95843.47
2023-03-06T17:06:04.123Z,95837.91
2023-03-06T17:08:35.765Z,95836.69
2023-03-06T17:11:07.841Z,95840.75
2023-03-06T17:13:39.956Z,95850.38
2023-03-06T17:16:13.701Z,95843.16
2023-03-06T17:18:46.056Z,95843.31
2023-03-06T17:21:17.649Z,95852.31
2023-03-06T17:23:49.250Z,95845.69
2023-03-06T17:26:20.945Z,95852.88
2023-03-06T17:28:52.694Z,95853.06
2023-03-06T17:31:27.148Z,95859.81
2023-03-06T17:33:58.788Z,95862.94
2023-03-06T17:36:31.526Z,95871.31
2023-03-06T17:39:03.665Z,95876.06
2023-03-06T17:41:35.484Z,95882.19
2023-03-06T17:44:07.121Z,95885.88
2023-03-06T17:46:38.793Z,95894.25
2023-03-06T17:49:10.524Z,95903.13
2023-03-06T17:51:42.250Z,95917.31
2023-03-06T17:54:13.898Z,95903.06
2023-03-06T17:56:45.577Z,95906.72
2023-03-06T17:59:17.166Z,95907.59
2023-03-06T18:02:11.046Z,95918.16
2023-03-06T18:04:43.021Z,95908.88
2023-03-06T18:07:14.779Z,95924.13
2023-03-06T18:09:46.500Z,95921.97
2023-03-06T18:12:18.132Z,95927.88
2023-03-06T18:14:49.725Z,95931.44
2023-03-06T18:17:21.571Z,95942.03
2023-03-06T18:19:53.235Z,95952.00
2023-03-06T18:22:24.967Z,95946.78
2023-03-06T18:24:56.631Z,95947.75
2023-03-06T18:27:28.351Z,95948.53
2023-03-06T18:30:00.200Z,95952.66
2023-03-06T18:32:31.975Z,95956.38
2023-03-06T18:35:04.141Z,95970.81
2023-03-06T18:37:35.902Z,95973.00
2023-03-06T18:40:08.852Z,95983.06
2023-03-06T18:42:40.741Z,95968.63
2023-03-06T18:45:12.522Z,95970.94
2023-03-06T18:47:44.413Z,95970.47
2023-03-06T18:50:16.262Z,95984.38
2023-03-06T18:52:47.890Z,95985.75
2023-03-06T18:55:19.539Z,95986.53
2023-03-06T18:57:51.279Z,95992.53
2023-03-06T19:00:23.400Z,95992.28
2023-03-06T19:02:55.804Z,95995.63
2023-03-06T19:05:28.204Z,96003.91
2023-03-06T19:08:00.336Z,96010.28
2023-03-06T19:10:39.808Z,96005.22
2023-03-06T19:13:12.282Z,96014.22
2023-03-06T19:15:49.179Z,96011.31
2023-03-06T19:18:20.972Z,96010.19
2023-03-06T19:20:52.733Z,96012.28
2023-03-06T19:23:24.656Z,96018.25
2023-03-06T19:25:57.421Z,96020.13
2023-03-06T19:28:30.220Z,96021.69
2023-03-06T19:31:28.414Z,96020.59
2023-03-06T19:34:00.442Z,96020.75
2023-03-06T19:36:33.907Z,96021.34
2023-03-06T19:39:08.206Z,96025.03
2023-03-06T19:41:40.700Z,96022.34
2023-03-06T19:44:12.672Z,96030.28
2023-03-06T19:46:44.342Z,96029.53
2023-03-06T19:49:16.773Z,96028.28
2023-03-06T19:51:48.495Z,96030.56
2023-03-06T19:54:20.219Z,96035.97
2023-03-06T19:56:51.938Z,96033.75
2023-03-06T19:59:23.852Z,96040.91
2023-03-06T20:01:55.661Z,96040.19
2023-03-06T20:04:30.648Z,96033.25
2023-03-06T20:07:02.421Z,96040.09
2023-03-06T20:09:34.069Z,96035.09
2023-03-06T20:12:08.147Z,96037.19
2023-03-06T20:14:40.567Z,96035.34
2023-03-06T20:17:12.225Z,96037.81
2023-03-06T20:19:44.173Z,96042.19
2023-03-06T20:22:15.796Z,96044.34
2023-03-06T20:24:47.437Z,96043.72
2023-03-06T20:27:19.312Z,96041.78
2023-03-06T20:29:51.047Z,96047.44
2023-03-06T20:32:22.632Z,96043.13
2023-03-06T20:34:54.257Z,96039.56
2023-03-06T20:37:25.974Z,96045.72
2023-03-06T20:39:57.572Z,96038.06
2023-03-06T20:42:29.134Z,96036.38
2023-03-06T20:45:00.808Z,96031.94
2023-03-06T20:47:32.453Z,96028.78
2023-03-06T20:50:04.452Z,96037.81
2023-03-06T20:52:36.102Z,96034.69
2023-03-06T20:55:08.126Z,96037.75
2023-03-06T20:57:40.030Z,96041.09
2023-03-06T21:00:12.093Z,96037.91
2023-03-06T21:02:43.766Z,96042.03
2023-03-06T21:05:15.509Z,96040.75
2023-03-06T21:07:47.888Z,96045.59
2023-03-06T21:10:19.441Z,96051.31
2023-03-06T21:12:51.150Z,96047.97
2023-03-06T21:15:22.790Z,96038.41
2023-03-06T21:17:54.458Z,96035.25
2023-03-06T21:20:26.166Z,96042.84
2023-03-06T21:22:57.827Z,96039.09
2023-03-06T21:25:29.751Z,96038.25
2023-03-06T21:28:01.494Z,96040.41
2023-03-06T21:30:34.362Z,96047.16
2023-03-06T21:33:05.932Z,96037.59
2023-03-06T21:35:41.690Z,96032.69
2023-03-06T21:38:13.916Z,96039.03
2023-03-06T21:40:45.982Z,96035.75
2023-03-06T21:43:17.790Z,96030.38
2023-03-06T21:45:49.845Z,96034.88
2023-03-06T21:48:21.725Z,96025.78
2023-03-06T21:51:02.536Z,96031.09
2023-03-06T21:53:34.643Z,96028.09
2023-03-06T21:56:06.706Z,96029.19
2023-03-06T21:58:39.443Z,96020.44
2023-03-06T22:01:17.659Z,96024.59
2023-03-06T22:03:49.366Z,96019.03
2023-03-06T22:06:24.398Z,96018.50
2023-03-06T22:08:58.018Z,96017.06
2023-03-06T22:11:30.266Z,96017.25
2023-03-06T22:14:01.855Z,96012.34
2023-03-06T22:16:33.684Z,96014.00
2023-03-06T22:19:08.388Z,96017.13
2023-03-06T22:21:39.925Z,96020.78
2023-03-06T22:24:11.558Z,96018.03
2023-03-06T22:26:43.228Z,96020.78
2023-03-06T22:29:14.850Z,96024.44
2023-03-06T22:31:46.558Z,96015.00
2023-03-06T22:34:18.434Z,96017.31
2023-03-06T22:36:49.977Z,96022.81
2023-03-06T22:39:21.605Z,96014.66
2023-03-06T22:41:56.956Z,96022.72
2023-03-06T22:44:28.728Z,96019.03
2023-03-06T22:47:00.309Z,96014.34
2023-03-06T22:49:32.146Z,96017.22
2023-03-06T22:52:03.858Z,96015.47
2023-03-06T22:54:35.652Z,96020.06
2023-03-06T22:57:07.268Z,96023.59
2023-03-06T22:59:39.077Z,96017.00
2023-03-06T23:02:10.645Z,96016.41
2023-03-06T23:04:42.371Z,96011.22
2023-03-06T23:07:14.190Z,96007.44
2023-03-06T23:09:46.110Z,96000.03
2023-03-06T23:12:36.084Z,96002.09
2023-03-06T23:15:26.301Z,96000.47
2023-03-06T23:18:16.606Z,96005.13
2023-03-06T23:21:12.466Z,96001.84
2023-03-06T23:24:02.848Z,96003.41
2023-03-06T23:26:34.996Z,95998.28
2023-03-06T23:29:06.584Z,96004.81
2023-03-06T23:31:38.192Z,95997.03
2023-03-06T23:34:09.901Z,95994.19
2023-03-06T23:36:41.499Z,95988.59
2023-03-06T23:39:13.244Z,95995.09
2023-03-06T23:41:44.930Z,95991.13
2023-03-06T23:44:16.553Z,95991.34
2023-03-06T23:46:48.107Z,95995.66
2023-03-06T23:49:21.874Z,96000.53
2023-03-06T23:51:53.673Z,96006.75
2023-03-06T23:54:25.370Z,95996.50
2023-03-06T23:56:56.995Z,95997.72
2023-03-06T23:59:28.696Z,95987.75
